createdAt,value
2023-08-27T00:00:27.661Z,22.01
2023-08-27T00:01:21.468Z,22.03
2023-08-27T00:02:21.443Z,22.04
2023-08-27T00:03:21.506Z,22.05
2023-08-27T00:04:21.467Z,22.07
2023-08-27T00:05:21.412Z,22.07
2023-08-27T00:06:27.716Z,22.08
2023-08-27T00:07:21.325Z,22.09
2023-08-27T00:08:21.360Z,22.09
2023-08-27T00:09:21.309Z,22.10
2023-08-27T00:10:21.268Z,22.11
2023-08-27T00:11:27.587Z,22.11
2023-08-27T00:12:21.312Z,22.12
2023-08-27T00:13:21.254Z,22.13
2023-08-27T00:14:21.252Z,22.13
2023-08-27T00:15:21.312Z,22.14
2023-08-27T00:16:21.265Z,22.15
2023-08-27T00:17:27.452Z,22.16
2023-08-27T00:18:21.239Z,22.17
2023-08-27T00:19:21.237Z,22.18
2023-08-27T00:20:21.154Z,22.19
2023-08-27T00:21:21.221Z,22.21
2023-08-27T00:22:27.408Z,22.22
2023-08-27T00:23:21.122Z,22.23
2023-08-27T00:24:21.139Z,22.25
2023-08-27T00:25:21.083Z,22.25
2023-08-27T00:26:21.196Z,22.26
2023-08-27T00:27:21.782Z,22.26
2023-08-27T00:28:27.345Z,22.26
2023-08-27T00:29:21.027Z,22.27
2023-08-27T00:30:21.049Z,22.27
2023-08-27T00:31:21.047Z,22.27
2023-08-27T00:32:25.975Z,22.27
2023-08-27T00:33:28.822Z,22.27
2023-08-27T00:34:20.999Z,22.27
2023-08-27T00:35:20.979Z,22.28
2023-08-27T00:36:20.977Z,22.27
2023-08-27T00:37:20.965Z,22.27
2023-08-27T00:38:27.190Z,22.26
2023-08-27T00:39:20.968Z,22.24
2023-08-27T00:40:20.908Z,22.23
2023-08-27T00:41:20.915Z,22.22
2023-08-27T00:42:20.915Z,22.21
2023-08-27T00:43:20.959Z,22.21
2023-08-27T00:44:27.129Z,22.20
2023-08-27T00:45:20.860Z,22.20
2023-08-27T00:46:20.820Z,22.20
2023-08-27T00:47:20.892Z,22.19
2023-08-27T00:48:20.788Z,22.19
2023-08-27T00:49:27.041Z,22.19
2023-08-27T00:50:20.796Z,22.19
2023-08-27T00:51:20.743Z,22.18
2023-08-27T00:52:20.849Z,22.18
2023-08-27T00:53:20.892Z,22.18
2023-08-27T00:54:20.738Z,22.17
2023-08-27T00:55:26.966Z,22.16
2023-08-27T00:56:20.733Z,22.15
2023-08-27T00:57:20.709Z,22.13
2023-08-27T00:58:20.715Z,22.11
2023-08-27T00:59:20.652Z,22.10
2023-08-27T01:00:20.661Z,22.08
2023-08-27T01:01:26.869Z,22.06
2023-08-27T01:02:20.690Z,22.04
2023-08-27T01:03:20.656Z,22.03
2023-08-27T01:04:20.579Z,22.00
2023-08-27T01:05:20.622Z,21.98
2023-08-27T01:06:26.886Z,21.96
2023-08-27T01:07:20.587Z,21.93
2023-08-27T01:08:20.580Z,21.91
2023-08-27T01:09:20.563Z,21.90
2023-08-27T01:10:20.526Z,21.88
2023-08-27T01:11:20.535Z,21.87
2023-08-27T01:12:26.847Z,21.85
2023-08-27T01:13:20.509Z,21.85
2023-08-27T01:14:20.528Z,21.84
2023-08-27T01:15:20.479Z,21.83
2023-08-27T01:16:20.446Z,21.83
2023-08-27T01:17:26.936Z,21.82
2023-08-27T01:18:20.486Z,21.81
2023-08-27T01:19:20.458Z,21.81
2023-08-27T01:20:20.418Z,21.80
2023-08-27T01:21:20.408Z,21.78
2023-08-27T01:22:26.627Z,21.76
2023-08-27T01:23:20.352Z,21.73
2023-08-27T01:24:20.351Z,21.70
2023-08-27T01:25:20.334Z,21.68
2023-08-27T01:26:20.350Z,21.65
2023-08-27T01:27:26.546Z,21.62
2023-08-27T01:28:20.318Z,21.60
2023-08-27T01:29:20.305Z,21.58
2023-08-27T01:30:20.284Z,21.57
2023-08-27T01:31:20.417Z,21.56
2023-08-27T01:32:20.270Z,21.56
2023-08-27T01:33:26.484Z,21.57
2023-08-27T01:34:20.237Z,21.58
2023-08-27T01:35:20.225Z,21.60
2023-08-27T01:36:20.395Z,21.61
2023-08-27T01:37:20.196Z,21.63
2023-08-27T01:38:20.210Z,21.65
2023-08-27T01:39:26.413Z,21.67
2023-08-27T01:40:20.168Z,21.68
2023-08-27T01:41:20.193Z,21.68
2023-08-27T01:42:20.125Z,21.69
2023-08-27T01:43:20.161Z,21.69
2023-08-27T01:44:20.124Z,21.69
2023-08-27T01:45:26.378Z,21.69
2023-08-27T01:46:20.138Z,21.69
2023-08-27T01:47:20.051Z,21.68
2023-08-27T01:48:20.037Z,21.68
2023-08-27T01:49:20.025Z,21.67
2023-08-27T01:50:20.040Z,21.66
2023-08-27T01:51:26.488Z,21.66
2023-08-27T01:52:19.978Z,21.67
2023-08-27T01:53:19.963Z,21.67
2023-08-27T01:54:19.957Z,21.68
2023-08-27T01:55:19.989Z,21.69
2023-08-27T01:56:19.987Z,21.70
2023-08-27T01:57:26.300Z,21.71
2023-08-27T01:58:19.923Z,21.73
2023-08-27T01:59:19.892Z,21.74
2023-08-27T02:00:19.972Z,21.75
2023-08-27T02:01:19.996Z,21.76
2023-08-27T02:02:19.985Z,21.77
2023-08-27T02:03:26.315Z,21.78
2023-08-27T02:04:19.953Z,21.79
2023-08-27T02:05:19.890Z,21.80
2023-08-27T02:06:19.813Z,21.80
2023-08-27T02:07:19.835Z,21.81
2023-08-27T02:08:19.777Z,21.82
2023-08-27T02:09:26.050Z,21.83
2023-08-27T02:10:19.815Z,21.83
2023-08-27T02:11:19.716Z,21.84
2023-08-27T02:12:19.778Z,21.85
2023-08-27T02:13:19.735Z,21.85
2023-08-27T02:14:26.054Z,21.85
2023-08-27T02:15:19.701Z,21.85
2023-08-27T02:16:19.709Z,21.84
2023-08-27T02:17:19.767Z,21.84
2023-08-27T02:18:19.749Z,21.84
2023-08-27T02:19:25.936Z,21.84
2023-08-27T02:20:19.630Z,21.83
2023-08-27T02:21:19.637Z,21.83
2023-08-27T02:22:19.646Z,21.83
2023-08-27T02:23:19.568Z,21.84
2023-08-27T02:24:19.594Z,21.84
2023-08-27T02:25:25.868Z,21.85
2023-08-27T02:26:19.555Z,21.86
2023-08-27T02:27:19.596Z,21.87
2023-08-27T02:28:19.577Z,21.88
2023-08-27T02:29:19.517Z,21.90
2023-08-27T02:30:19.506Z,21.91
2023-08-27T02:31:25.752Z,21.93
2023-08-27T02:32:19.488Z,21.94
2023-08-27T02:33:19.465Z,21.95
2023-08-27T02:34:19.472Z,21.96
2023-08-27T02:35:19.467Z,21.97
2023-08-27T02:36:19.440Z,21.97
2023-08-27T02:37:25.750Z,21.97
2023-08-27T02:38:19.445Z,21.97
2023-08-27T02:39:19.412Z,21.98
2023-08-27T02:40:19.413Z,21.97
2023-08-27T02:41:19.372Z,21.97
2023-08-27T02:42:25.705Z,21.96
2023-08-27T02:43:19.386Z,21.96
2023-08-27T02:44:19.347Z,21.96
2023-08-27T02:45:19.301Z,21.96
2023-08-27T02:46:19.331Z,21.96
2023-08-27T02:47:19.335Z,21.96
2023-08-27T02:48:25.558Z,21.96
2023-08-27T02:49:19.266Z,21.96
2023-08-27T02:50:19.301Z,21.96
2023-08-27T02:51:19.254Z,21.97
2023-08-27T02:52:19.216Z,21.97
2023-08-27T02:53:19.214Z,21.98
2023-08-27T02:54:25.461Z,21.99
2023-08-27T02:55:19.208Z,22.00
2023-08-27T02:56:19.182Z,22.00
2023-08-27T02:57:19.257Z,22.01
2023-08-27T02:58:19.129Z,22.02
2023-08-27T02:59:25.413Z,22.03
2023-08-27T03:00:19.167Z,22.04
2023-08-27T03:01:19.145Z,22.04
2023-08-27T03:02:19.115Z,22.05
2023-08-27T03:03:19.213Z,22.05
2023-08-27T03:04:19.137Z,22.06
2023-08-27T03:05:25.434Z,22.06
2023-08-27T03:06:19.072Z,22.06
2023-08-27T03:07:19.067Z,22.06
2023-08-27T03:08:19.044Z,22.06
2023-08-27T03:09:19.053Z,22.05
2023-08-27T03:10:25.275Z,22.04
2023-08-27T03:11:18.990Z,22.02
2023-08-27T03:12:18.971Z,22.00
2023-08-27T03:13:18.982Z,21.98
2023-08-27T03:14:18.973Z,21.95
2023-08-27T03:15:25.163Z,21.93
2023-08-27T03:16:19.033Z,21.91
2023-08-27T03:17:18.895Z,21.90
2023-08-27T03:18:19.021Z,21.89
2023-08-27T03:19:18.908Z,21.88
2023-08-27T03:20:25.122Z,21.88
2023-08-27T03:21:18.884Z,21.88
2023-08-27T03:22:18.851Z,21.89
2023-08-27T03:23:18.875Z,21.89
2023-08-27T03:24:18.865Z,21.90
2023-08-27T03:25:25.054Z,21.91
2023-08-27T03:26:18.827Z,21.91
2023-08-27T03:27:18.751Z,21.92
2023-08-27T03:28:18.840Z,21.93
2023-08-27T03:29:18.785Z,21.93
2023-08-27T03:30:18.746Z,21.93
2023-08-27T03:31:25.012Z,21.94
2023-08-27T03:32:18.734Z,21.94
2023-08-27T03:33:18.722Z,21.94
2023-08-27T03:34:18.725Z,21.94
2023-08-27T03:35:18.653Z,21.94
2023-08-27T03:36:18.719Z,21.95
2023-08-27T03:37:24.946Z,21.95
2023-08-27T03:38:18.683Z,21.95
2023-08-27T03:39:18.729Z,21.95
2023-08-27T03:40:18.616Z,21.95
2023-08-27T03:41:18.645Z,21.95
2023-08-27T03:42:18.610Z,21.95
2023-08-27T03:43:24.892Z,21.94
2023-08-27T03:44:18.575Z,21.94
2023-08-27T03:45:18.585Z,21.94
2023-08-27T03:46:18.549Z,21.94
2023-08-27T03:47:18.562Z,21.94
2023-08-27T03:48:18.574Z,21.94
2023-08-27T03:49:24.877Z,21.94
2023-08-27T03:50:18.482Z,21.94
2023-08-27T03:51:18.469Z,21.94
2023-08-27T03:52:18.465Z,21.94
2023-08-27T03:53:18.496Z,21.94
2023-08-27T03:54:18.475Z,21.94
2023-08-27T03:55:24.719Z,21.94
2023-08-27T03:56:18.426Z,21.94
2023-08-27T03:57:18.411Z,21.94
2023-08-27T03:58:18.381Z,21.94
2023-08-27T03:59:18.362Z,21.94
2023-08-27T04:00:18.420Z,21.94
2023-08-27T04:01:24.628Z,21.95
2023-08-27T04:02:18.328Z,21.95
2023-08-27T04:03:18.446Z,21.96
2023-08-27T04:04:18.357Z,21.96
2023-08-27T04:05:18.339Z,21.96
2023-08-27T04:06:24.557Z,21.97
2023-08-27T04:07:18.310Z,21.97
2023-08-27T04:08:18.254Z,21.97
2023-08-27T04:09:18.306Z,21.98
2023-08-27T04:10:18.241Z,21.98
2023-08-27T04:11:24.467Z,21.99
2023-08-27T04:12:18.234Z,21.99
2023-08-27T04:13:18.220Z,21.99
2023-08-27T04:14:18.189Z,22.00
2023-08-27T04:15:18.180Z,22.00
2023-08-27T04:16:24.450Z,22.00
2023-08-27T04:17:18.138Z,22.00
2023-08-27T04:18:18.141Z,21.99
2023-08-27T04:19:18.180Z,21.99
2023-08-27T04:20:18.168Z,21.99
2023-08-27T04:21:18.122Z,21.99
2023-08-27T04:22:24.339Z,21.99
2023-08-27T04:23:18.093Z,21.99
2023-08-27T04:24:18.100Z,21.99
2023-08-27T04:25:18.057Z,21.99
2023-08-27T04:26:18.058Z,21.99
2023-08-27T04:27:24.355Z,21.99
2023-08-27T04:28:18.049Z,21.99
2023-08-27T04:29:18.021Z,21.99
2023-08-27T04:30:18.018Z,21.99
2023-08-27T04:31:18.014Z,21.99
2023-08-27T04:32:17.950Z,21.99
2023-08-27T04:33:24.209Z,21.98
2023-08-27T04:34:18.022Z,21.98
2023-08-27T04:35:17.989Z,21.98
2023-08-27T04:36:17.905Z,21.98
2023-08-27T04:37:17.898Z,21.98
2023-08-27T04:38:17.925Z,21.98
2023-08-27T04:39:24.100Z,21.98
2023-08-27T04:40:17.916Z,21.99
2023-08-27T04:41:17.905Z,21.99
2023-08-27T04:42:17.939Z,21.99
2023-08-27T04:43:17.845Z,22.00
2023-08-27T04:44:17.849Z,22.00
2023-08-27T04:45:24.085Z,22.01
2023-08-27T04:46:17.775Z,22.01
2023-08-27T04:47:17.797Z,22.02
2023-08-27T04:48:17.805Z,22.03
2023-08-27T04:49:17.763Z,22.04
2023-08-27T04:50:23.993Z,22.06
2023-08-27T04:51:17.752Z,22.07
2023-08-27T04:52:31.350Z,22.09
2023-08-27T04:53:19.238Z,22.11
2023-08-27T04:54:17.696Z,22.12
2023-08-27T04:55:17.711Z,22.14
2023-08-27T04:56:23.955Z,22.15
2023-08-27T04:57:17.706Z,22.15
2023-08-27T04:58:17.604Z,22.16
2023-08-27T04:59:18.103Z,22.17
2023-08-27T05:00:17.635Z,22.17
2023-08-27T05:01:23.890Z,22.18
2023-08-27T05:02:17.601Z,22.18
2023-08-27T05:03:17.609Z,22.18
2023-08-27T05:04:17.548Z,22.18
2023-08-27T05:05:17.622Z,22.19
2023-08-27T05:06:17.531Z,22.19
2023-08-27T05:07:23.879Z,22.19
2023-08-27T05:08:17.511Z,22.19
2023-08-27T05:09:17.499Z,22.19
2023-08-27T05:10:17.471Z,22.19
2023-08-27T05:11:17.515Z,22.20
2023-08-27T05:12:23.688Z,22.21
2023-08-27T05:13:17.466Z,22.22
2023-08-27T05:14:17.457Z,22.23
2023-08-27T05:15:17.442Z,22.24
2023-08-27T05:16:17.495Z,22.25
2023-08-27T05:17:23.680Z,22.26
2023-08-27T05:18:17.478Z,22.28
2023-08-27T05:19:17.363Z,22.30
2023-08-27T05:20:17.431Z,22.33
2023-08-27T05:21:17.377Z,22.36
2023-08-27T05:22:23.555Z,22.39
2023-08-27T05:23:17.384Z,22.42
2023-08-27T05:24:17.345Z,22.45
2023-08-27T05:25:17.274Z,22.48
2023-08-27T05:26:17.303Z,22.50
2023-08-27T05:27:23.500Z,22.53
2023-08-27T05:28:17.247Z,22.55
2023-08-27T05:29:17.228Z,22.56
2023-08-27T05:30:17.305Z,22.57
2023-08-27T05:31:17.261Z,22.58
2023-08-27T05:32:17.230Z,22.59
2023-08-27T05:33:23.431Z,22.60
2023-08-27T05:34:17.207Z,22.60
2023-08-27T05:35:17.155Z,22.61
2023-08-27T05:36:17.167Z,22.62
2023-08-27T05:37:17.130Z,22.63
2023-08-27T05:38:17.107Z,22.64
2023-08-27T05:39:23.366Z,22.65
2023-08-27T05:40:17.118Z,22.67
2023-08-27T05:41:17.144Z,22.70
2023-08-27T05:42:17.073Z,22.74
2023-08-27T05:43:17.103Z,22.78
2023-08-27T05:44:17.099Z,22.81
2023-08-27T05:45:23.313Z,22.82
2023-08-27T05:46:17.077Z,22.83
2023-08-27T05:47:17.027Z,22.84
2023-08-27T05:48:17.088Z,22.85
2023-08-27T05:49:17.039Z,22.86
2023-08-27T05:50:16.985Z,22.88
2023-08-27T05:51:23.226Z,22.90
2023-08-27T05:52:16.955Z,22.91
2023-08-27T05:53:16.984Z,22.92
2023-08-27T05:54:16.936Z,22.92
2023-08-27T05:55:16.972Z,22.92
2023-08-27T05:56:23.158Z,22.92
2023-08-27T05:57:16.881Z,22.94
2023-08-27T05:58:16.889Z,22.97
2023-08-27T05:59:16.880Z,23.00
2023-08-27T06:00:16.862Z,23.04
2023-08-27T06:01:16.888Z,23.08
2023-08-27T06:02:23.091Z,23.13
2023-08-27T06:03:16.823Z,23.18
2023-08-27T06:04:16.806Z,23.23
2023-08-27T06:05:16.804Z,23.26
2023-08-27T06:06:16.818Z,23.29
2023-08-27T06:07:22.998Z,23.30
2023-08-27T06:08:16.779Z,23.30
2023-08-27T06:09:16.742Z,23.30
2023-08-27T06:10:16.711Z,23.30
2023-08-27T06:11:16.772Z,23.30
2023-08-27T06:12:16.716Z,23.30
2023-08-27T06:13:22.984Z,23.30
2023-08-27T06:14:16.672Z,23.31
2023-08-27T06:15:16.710Z,23.32
2023-08-27T06:16:16.759Z,23.33
2023-08-27T06:17:16.685Z,23.34
2023-08-27T06:18:22.909Z,23.35
2023-08-27T06:19:16.615Z,23.35
2023-08-27T06:20:16.622Z,23.36
2023-08-27T06:21:16.584Z,23.37
2023-08-27T06:22:16.579Z,23.38
2023-08-27T06:23:16.684Z,23.39
2023-08-27T06:24:22.799Z,23.39
2023-08-27T06:25:16.631Z,23.40
2023-08-27T06:26:16.574Z,23.40
2023-08-27T06:27:16.492Z,23.41
2023-08-27T06:28:16.512Z,23.42
2023-08-27T06:29:22.736Z,23.44
2023-08-27T06:30:16.492Z,23.46
2023-08-27T06:31:16.495Z,23.49
2023-08-27T06:32:16.435Z,23.52
2023-08-27T06:33:16.505Z,23.56
2023-08-27T06:34:16.437Z,23.60
2023-08-27T06:35:22.682Z,23.65
2023-08-27T06:36:16.399Z,23.68
2023-08-27T06:37:16.381Z,23.72
2023-08-27T06:38:16.366Z,23.75
2023-08-27T06:39:16.369Z,23.79
2023-08-27T06:40:22.662Z,23.82
2023-08-27T06:41:16.326Z,23.85
2023-08-27T06:42:16.371Z,23.88
2023-08-27T06:43:16.309Z,23.91
2023-08-27T06:44:16.302Z,23.94
2023-08-27T06:45:16.319Z,23.96
2023-08-27T06:46:22.543Z,23.98
2023-08-27T06:47:16.281Z,24.00
2023-08-27T06:48:16.299Z,24.01
2023-08-27T06:49:16.352Z,24.03
2023-08-27T06:50:16.278Z,24.06
2023-08-27T06:51:22.478Z,24.10
2023-08-27T06:52:16.207Z,24.15
2023-08-27T06:53:16.243Z,24.21
2023-08-27T06:54:16.257Z,24.27
2023-08-27T06:55:16.240Z,24.31
2023-08-27T06:56:16.180Z,24.33
2023-08-27T06:57:22.466Z,24.34
2023-08-27T06:58:16.176Z,24.32
2023-08-27T06:59:16.169Z,24.30
2023-08-27T07:00:16.134Z,24.26
2023-08-27T07:01:16.145Z,24.23
2023-08-27T07:02:22.371Z,24.21
2023-08-27T07:03:16.188Z,24.19
2023-08-27T07:04:16.156Z,24.16
2023-08-27T07:05:16.207Z,24.14
2023-08-27T07:06:16.060Z,24.12
2023-08-27T07:07:16.021Z,24.11
2023-08-27T07:08:24.187Z,24.11
2023-08-27T07:09:16.029Z,24.12
2023-08-27T07:10:16.029Z,24.12
2023-08-27T07:11:15.954Z,24.13
2023-08-27T07:12:16.016Z,24.15
2023-08-27T07:13:22.218Z,24.17
2023-08-27T07:14:16.030Z,24.19
2023-08-27T07:15:15.963Z,24.21
2023-08-27T07:16:15.933Z,24.23
2023-08-27T07:17:16.006Z,24.27
2023-08-27T07:18:15.942Z,24.31
2023-08-27T07:19:22.124Z,24.36
2023-08-27T07:20:15.895Z,24.41
2023-08-27T07:21:15.863Z,24.46
2023-08-27T07:22:15.857Z,24.49
2023-08-27T07:23:15.866Z,24.53
2023-08-27T07:24:22.077Z,24.55
2023-08-27T07:25:19.117Z,24.57
2023-08-27T07:26:15.816Z,24.59
2023-08-27T07:27:15.782Z,24.60
2023-08-27T07:28:15.777Z,24.60
2023-08-27T07:29:22.053Z,24.61
2023-08-27T07:30:15.780Z,24.62
2023-08-27T07:31:15.756Z,24.63
2023-08-27T07:32:15.758Z,24.65
2023-08-27T07:33:15.766Z,24.67
2023-08-27T07:34:15.696Z,24.71
2023-08-27T07:35:21.902Z,24.75
2023-08-27T07:36:15.705Z,24.79
2023-08-27T07:37:15.897Z,24.82
2023-08-27T07:38:15.638Z,24.86
2023-08-27T07:39:15.629Z,24.89
2023-08-27T07:40:21.907Z,24.93
2023-08-27T07:41:15.644Z,24.96
2023-08-27T07:42:15.597Z,25.00
2023-08-27T07:43:15.602Z,25.03
2023-08-27T07:44:15.583Z,25.06
2023-08-27T07:45:21.798Z,25.10
2023-08-27T07:46:15.593Z,25.13
2023-08-27T07:47:15.528Z,25.17
2023-08-27T07:48:15.569Z,25.21
2023-08-27T07:49:15.529Z,25.25
2023-08-27T07:50:21.724Z,25.29
2023-08-27T07:51:15.476Z,25.34
2023-08-27T07:52:15.473Z,25.38
2023-08-27T07:53:15.496Z,25.42
2023-08-27T07:54:15.454Z,25.46
2023-08-27T07:55:21.666Z,25.48
2023-08-27T07:56:15.420Z,25.50
2023-08-27T07:57:15.433Z,25.51
2023-08-27T07:58:15.385Z,25.54
2023-08-27T07:59:15.382Z,25.57
2023-08-27T08:00:15.366Z,25.62
2023-08-27T08:01:21.653Z,25.67
2023-08-27T08:02:15.380Z,25.74
2023-08-27T08:03:15.496Z,25.82
2023-08-27T08:04:15.310Z,25.89
2023-08-27T08:05:15.288Z,25.97
2023-08-27T08:06:15.313Z,26.07
2023-08-27T08:07:21.574Z,26.16
2023-08-27T08:08:15.279Z,26.24
2023-08-27T08:09:15.259Z,26.30
2023-08-27T08:10:15.267Z,26.35
2023-08-27T08:11:15.241Z,26.39
2023-08-27T08:12:21.522Z,26.43
2023-08-27T08:13:15.188Z,26.46
2023-08-27T08:14:15.167Z,26.49
2023-08-27T08:15:15.211Z,26.52
2023-08-27T08:16:15.179Z,26.54
2023-08-27T08:17:15.131Z,26.57
2023-08-27T08:18:21.444Z,26.60
2023-08-27T08:19:15.156Z,26.62
2023-08-27T08:20:15.145Z,26.63
2023-08-27T08:21:15.145Z,26.63
2023-08-27T08:22:15.075Z,26.63
2023-08-27T08:23:15.113Z,26.62
2023-08-27T08:24:21.302Z,26.60
2023-08-27T08:25:15.087Z,26.56
2023-08-27T08:26:15.094Z,26.53
2023-08-27T08:27:15.072Z,26.51
2023-08-27T08:28:15.028Z,26.49
2023-08-27T08:29:21.213Z,26.48
2023-08-27T08:30:14.959Z,26.47
2023-08-27T08:31:14.978Z,26.48
2023-08-27T08:32:14.966Z,26.49
2023-08-27T08:33:15.018Z,26.49
2023-08-27T08:34:21.248Z,26.49
2023-08-27T08:35:14.920Z,26.49
2023-08-27T08:36:14.961Z,26.49
2023-08-27T08:37:14.873Z,26.49
2023-08-27T08:38:14.900Z,26.48
2023-08-27T08:39:21.086Z,26.47
2023-08-27T08:40:14.895Z,26.46
2023-08-27T08:41:14.843Z,26.45
2023-08-27T08:42:14.825Z,26.42
2023-08-27T08:43:14.846Z,26.40
2023-08-27T08:44:14.882Z,26.37
2023-08-27T08:45:21.047Z,26.34
2023-08-27T08:46:14.864Z,26.30
2023-08-27T08:47:14.774Z,26.26
2023-08-27T08:48:14.828Z,26.24
2023-08-27T08:49:14.790Z,26.23
2023-08-27T08:50:20.971Z,26.23
2023-08-27T08:51:14.774Z,26.21
2023-08-27T08:52:14.693Z,26.18
2023-08-27T08:53:14.727Z,26.15
2023-08-27T08:54:14.699Z,26.11
2023-08-27T08:55:20.918Z,26.08
2023-08-27T08:56:14.741Z,26.05
2023-08-27T08:57:14.651Z,26.02
2023-08-27T08:58:14.704Z,26.01
2023-08-27T08:59:14.655Z,26.01
2023-08-27T09:00:20.871Z,26.03
2023-08-27T09:01:14.814Z,26.05
2023-08-27T09:02:14.690Z,26.07
2023-08-27T09:03:14.659Z,26.09
2023-08-27T09:04:14.541Z,26.11
2023-08-27T09:05:20.844Z,26.14
2023-08-27T09:06:14.750Z,26.18
2023-08-27T09:07:14.488Z,26.22
2023-08-27T09:08:14.502Z,26.28
2023-08-27T09:09:14.552Z,26.34
2023-08-27T09:10:14.511Z,26.40
2023-08-27T09:11:20.801Z,26.46
2023-08-27T09:12:14.452Z,26.50
2023-08-27T09:13:14.445Z,26.54
2023-08-27T09:14:14.414Z,26.59
2023-08-27T09:15:14.482Z,26.63
2023-08-27T09:16:14.440Z,26.67
2023-08-27T09:17:20.634Z,26.71
2023-08-27T09:18:14.500Z,26.75
2023-08-27T09:19:14.381Z,26.76
2023-08-27T09:20:14.382Z,26.75
2023-08-27T09:21:14.322Z,26.71
2023-08-27T09:22:20.620Z,26.66
2023-08-27T09:23:14.365Z,26.60
2023-08-27T09:24:14.283Z,26.53
2023-08-27T09:25:14.340Z,26.47
2023-08-27T09:26:14.299Z,26.42
2023-08-27T09:27:20.513Z,26.38
2023-08-27T09:28:14.229Z,26.36
2023-08-27T09:29:14.231Z,26.35
2023-08-27T09:30:14.224Z,26.36
2023-08-27T09:31:14.201Z,26.39
2023-08-27T09:32:20.449Z,26.43
2023-08-27T09:33:14.248Z,26.48
2023-08-27T09:34:14.214Z,26.54
2023-08-27T09:35:14.160Z,26.58
2023-08-27T09:36:14.137Z,26.62
2023-08-27T09:37:14.160Z,26.65
2023-08-27T09:38:20.368Z,26.67
2023-08-27T09:39:14.114Z,26.68
2023-08-27T09:40:14.173Z,26.69
2023-08-27T09:41:14.083Z,26.70
2023-08-27T09:42:14.077Z,26.71
2023-08-27T09:43:14.070Z,26.70
2023-08-27T09:44:20.281Z,26.69
2023-08-27T09:45:14.035Z,26.68
2023-08-27T09:46:14.051Z,26.66
2023-08-27T09:47:14.004Z,26.66
2023-08-27T09:48:14.050Z,26.68
2023-08-27T09:49:13.990Z,26.71
2023-08-27T09:50:20.261Z,26.77
2023-08-27T09:51:13.950Z,26.86
2023-08-27T09:52:13.946Z,26.96
2023-08-27T09:53:14.063Z,27.04
2023-08-27T09:54:13.940Z,27.07
2023-08-27T09:55:20.218Z,27.09
2023-08-27T09:56:13.898Z,27.12
2023-08-27T09:57:13.940Z,27.16
2023-08-27T09:58:13.883Z,27.18
2023-08-27T09:59:13.843Z,27.20
2023-08-27T10:00:13.910Z,27.23
2023-08-27T10:01:20.130Z,27.28
2023-08-27T10:02:13.836Z,27.34
2023-08-27T10:03:13.925Z,27.40
2023-08-27T10:04:13.796Z,27.48
2023-08-27T10:05:16.270Z,27.56
2023-08-27T10:06:19.983Z,27.66
2023-08-27T10:07:13.805Z,27.74
2023-08-27T10:08:13.783Z,27.80
2023-08-27T10:09:13.731Z,27.85
2023-08-27T10:10:13.740Z,27.92
2023-08-27T10:11:13.706Z,27.98
2023-08-27T10:12:19.980Z,28.04
2023-08-27T10:13:13.745Z,28.08
2023-08-27T10:14:13.674Z,28.12
2023-08-27T10:15:13.720Z,28.15
2023-08-27T10:16:13.749Z,28.20
2023-08-27T10:17:13.669Z,28.27
2023-08-27T10:18:19.909Z,28.33
2023-08-27T10:19:13.639Z,28.35
2023-08-27T10:20:13.636Z,28.35
2023-08-27T10:21:13.569Z,28.32
2023-08-27T10:22:13.579Z,28.29
2023-08-27T10:23:19.837Z,28.25
2023-08-27T10:24:13.586Z,28.22
2023-08-27T10:25:13.549Z,28.19
2023-08-27T10:26:13.564Z,28.17
2023-08-27T10:27:13.526Z,28.15
2023-08-27T10:28:13.511Z,28.13
2023-08-27T10:29:19.754Z,28.11
2023-08-27T10:30:13.501Z,28.08
2023-08-27T10:31:13.550Z,28.03
2023-08-27T10:32:13.434Z,27.98
2023-08-27T10:33:13.481Z,27.93
2023-08-27T10:34:13.456Z,27.90
2023-08-27T10:35:19.640Z,27.87
2023-08-27T10:36:13.426Z,27.82
2023-08-27T10:37:13.398Z,27.76
2023-08-27T10:38:13.350Z,27.68
2023-08-27T10:39:13.376Z,27.59
2023-08-27T10:40:19.545Z,27.50
2023-08-27T10:41:13.343Z,27.44
2023-08-27T10:42:13.359Z,27.40
2023-08-27T10:43:13.305Z,27.37
2023-08-27T10:44:13.315Z,27.37
2023-08-27T10:45:13.282Z,27.40
2023-08-27T10:46:21.966Z,27.44
2023-08-27T10:47:13.227Z,27.48
2023-08-27T10:48:13.297Z,27.53
2023-08-27T10:49:13.438Z,27.59
2023-08-27T10:50:13.223Z,27.63
2023-08-27T10:51:19.487Z,27.65
2023-08-27T10:52:13.203Z,27.65
2023-08-27T10:53:13.192Z,27.63
2023-08-27T10:54:13.171Z,27.60
2023-08-27T10:55:13.197Z,27.56
2023-08-27T10:56:13.130Z,27.52
2023-08-27T10:57:19.498Z,27.47
2023-08-27T10:58:13.143Z,27.40
2023-08-27T10:59:13.125Z,27.34
2023-08-27T11:00:13.080Z,27.28
2023-08-27T11:01:13.118Z,27.25
2023-08-27T11:02:13.157Z,27.23
2023-08-27T11:03:19.388Z,27.22
2023-08-27T11:04:13.094Z,27.21
2023-08-27T11:05:13.058Z,27.20
2023-08-27T11:06:13.023Z,27.19
2023-08-27T11:07:13.087Z,27.18
2023-08-27T11:08:19.337Z,27.18
2023-08-27T11:09:17.566Z,27.20
2023-08-27T11:10:14.497Z,27.22
2023-08-27T11:11:12.983Z,27.24
2023-08-27T11:12:12.985Z,27.26
2023-08-27T11:13:12.967Z,27.28
2023-08-27T11:14:20.248Z,27.29
2023-08-27T11:15:12.958Z,27.31
2023-08-27T11:16:12.922Z,27.33
2023-08-27T11:17:12.924Z,27.34
2023-08-27T11:18:12.920Z,27.35
2023-08-27T11:19:19.112Z,27.33
2023-08-27T11:20:13.005Z,27.29
2023-08-27T11:21:12.817Z,27.24
2023-08-27T11:22:13.006Z,27.19
2023-08-27T11:23:12.877Z,27.15
2023-08-27T11:25:11.706Z,28.04
2023-08-27T11:26:11.692Z,27.58
2023-08-27T11:27:11.677Z,27.23
2023-08-27T11:28:11.723Z,27.01
2023-08-27T11:29:17.930Z,26.87
2023-08-27T11:30:11.630Z,26.79
2023-08-27T11:31:11.678Z,26.74
2023-08-27T11:32:11.654Z,26.72
2023-08-27T11:33:11.631Z,26.74
2023-08-27T11:34:17.815Z,26.81
2023-08-27T11:35:11.585Z,26.89
2023-08-27T11:36:11.612Z,26.97
2023-08-27T11:37:11.589Z,27.02
2023-08-27T11:38:11.576Z,27.05
2023-08-27T11:39:11.495Z,27.06
2023-08-27T11:40:17.761Z,27.05
2023-08-27T11:41:11.483Z,27.04
2023-08-27T11:42:11.509Z,27.03
2023-08-27T11:43:11.576Z,27.01
2023-08-27T11:44:11.538Z,26.99
2023-08-27T11:45:17.684Z,26.96
2023-08-27T11:46:11.511Z,26.92
2023-08-27T11:47:11.465Z,26.88
2023-08-27T11:48:11.475Z,26.85
2023-08-27T11:49:11.379Z,26.83
2023-08-27T11:50:17.651Z,26.81
2023-08-27T11:51:11.352Z,26.80
2023-08-27T11:52:11.360Z,26.79
2023-08-27T11:53:11.359Z,26.78
2023-08-27T11:54:11.448Z,26.78
2023-08-27T11:55:11.320Z,26.77
2023-08-27T11:56:17.540Z,26.77
2023-08-27T11:57:11.273Z,26.76
2023-08-27T11:58:11.284Z,26.75
2023-08-27T11:59:11.267Z,26.74
2023-08-27T12:00:11.260Z,26.73
2023-08-27T12:01:17.530Z,26.72
2023-08-27T12:02:11.227Z,26.70
2023-08-27T12:03:11.253Z,26.69
2023-08-27T12:04:11.221Z,26.68
2023-08-27T12:05:11.198Z,26.69
2023-08-27T12:06:17.412Z,26.73
2023-08-27T12:07:11.220Z,26.79
2023-08-27T12:08:11.169Z,26.84
2023-08-27T12:09:11.173Z,26.88
2023-08-27T12:10:11.157Z,26.90
2023-08-27T12:11:17.330Z,26.92
2023-08-27T12:12:11.112Z,26.94
2023-08-27T12:13:11.083Z,26.94
2023-08-27T12:14:11.094Z,26.94
2023-08-27T12:15:11.046Z,26.94
2023-08-27T12:16:11.075Z,26.95
2023-08-27T12:17:17.266Z,26.96
2023-08-27T12:18:11.061Z,26.95
2023-08-27T12:19:11.041Z,26.94
2023-08-27T12:20:10.964Z,26.92
2023-08-27T12:21:10.984Z,26.90
2023-08-27T12:22:17.217Z,26.88
2023-08-27T12:23:10.950Z,26.88
2023-08-27T12:24:10.978Z,26.87
2023-08-27T12:25:10.953Z,26.87
2023-08-27T12:26:10.953Z,26.86
2023-08-27T12:27:17.131Z,26.83
2023-08-27T12:28:10.897Z,26.79
2023-08-27T12:29:10.858Z,26.74
2023-08-27T12:30:10.890Z,26.69
2023-08-27T12:31:10.912Z,26.63
2023-08-27T12:32:17.081Z,26.58
2023-08-27T12:33:10.849Z,26.54
2023-08-27T12:34:10.811Z,26.49
2023-08-27T12:35:10.799Z,26.44
2023-08-27T12:36:10.837Z,26.39
2023-08-27T12:37:17.013Z,26.34
2023-08-27T12:38:10.771Z,26.30
2023-08-27T12:39:10.774Z,26.25
2023-08-27T12:40:11.418Z,26.21
2023-08-27T12:41:10.753Z,26.17
2023-08-27T12:42:10.745Z,26.14
2023-08-27T12:43:17.037Z,26.11
2023-08-27T12:44:10.666Z,26.09
2023-08-27T12:45:10.698Z,26.06
2023-08-27T12:46:10.789Z,26.04
2023-08-27T12:47:10.653Z,26.02
2023-08-27T12:48:10.690Z,26.02
2023-08-27T12:49:16.867Z,26.02
2023-08-27T12:50:10.599Z,26.03
2023-08-27T12:51:10.613Z,26.04
2023-08-27T12:52:10.586Z,26.04
2023-08-27T12:53:10.570Z,26.04